createdAt,value
2023-04-15T00:01:20.110Z,53.78
2023-04-15T00:03:49.332Z,53.96
2023-04-15T00:06:21.383Z,54.34
2023-04-15T00:08:51.498Z,54.46
2023-04-15T00:11:20.839Z,54.72
2023-04-15T00:13:50.140Z,54.62
2023-04-15T00:16:19.048Z,55.14
2023-04-15T00:18:47.720Z,54.82
2023-04-15T00:21:16.820Z,54.42
2023-04-15T00:23:45.862Z,54.82
2023-04-15T00:26:14.999Z,54.95
2023-04-15T00:28:45.338Z,54.64
2023-04-15T00:31:14.067Z,54.37
2023-04-15T00:33:43.021Z,54.72
2023-04-15T00:36:12.060Z,55.46
2023-04-15T00:38:40.705Z,55.18
2023-04-15T00:41:11.242Z,55.09
2023-04-15T00:43:39.996Z,55.02
2023-04-15T00:46:10.283Z,54.86
2023-04-15T00:48:39.719Z,55.26
2023-04-15T00:51:08.488Z,55.02
2023-04-15T00:53:37.118Z,55.08
2023-04-15T00:56:06.963Z,54.96
2023-04-15T00:58:35.800Z,54.97
2023-04-15T01:01:05.315Z,55.17
2023-04-15T01:03:34.624Z,55.14
2023-04-15T01:06:04.663Z,54.73
2023-04-15T01:08:33.921Z,55.31
2023-04-15T01:11:06.480Z,54.91
2023-04-15T01:13:38.677Z,54.88
2023-04-15T01:16:09.612Z,54.97
2023-04-15T01:18:39.386Z,55.44
2023-04-15T01:21:08.684Z,54.69
2023-04-15T01:23:40.497Z,54.55
2023-04-15T01:26:12.828Z,54.29
2023-04-15T01:28:41.517Z,54.00
2023-04-15T01:31:15.376Z,54.17
2023-04-15T01:33:44.594Z,53.79
2023-04-15T01:36:16.106Z,53.25
2023-04-15T01:38:44.904Z,53.63
2023-04-15T01:41:17.324Z,52.84
2023-04-15T01:43:46.423Z,53.53
2023-04-15T01:46:15.316Z,52.91
2023-04-15T01:48:46.905Z,53.11
2023-04-15T01:51:15.622Z,52.40
2023-04-15T01:53:44.223Z,51.95
2023-04-15T01:56:15.293Z,51.94
2023-04-15T01:58:45.629Z,52.23
2023-04-15T02:01:14.438Z,52.30
2023-04-15T02:03:43.478Z,51.62
2023-04-15T02:06:12.272Z,51.31
2023-04-15T02:08:41.955Z,49.79
2023-04-15T02:11:11.018Z,49.38
2023-04-15T02:13:40.295Z,49.48
2023-04-15T02:16:20.378Z,50.50
2023-04-15T02:18:49.170Z,50.28
2023-04-15T02:21:17.826Z,50.71
2023-04-15T02:23:48.901Z,50.56
2023-04-15T02:26:18.267Z,49.06
2023-04-15T02:28:49.013Z,48.21
2023-04-15T02:31:18.556Z,48.76
2023-04-15T02:33:47.327Z,48.69
2023-04-15T02:36:16.478Z,48.85
2023-04-15T02:38:45.708Z,48.24
2023-04-15T02:41:16.164Z,48.21
2023-04-15T02:43:47.006Z,47.45
2023-04-15T02:46:19.707Z,46.89
2023-04-15T02:48:50.557Z,47.08
2023-04-15T02:51:24.722Z,47.46
2023-04-15T02:53:54.689Z,46.75
2023-04-15T02:56:24.346Z,47.22
2023-04-15T02:58:56.982Z,47.17
2023-04-15T03:01:25.612Z,46.37
2023-04-15T03:03:55.751Z,45.95
2023-04-15T03:06:25.394Z,46.29
2023-04-15T03:08:54.041Z,45.57
2023-04-15T03:11:23.909Z,45.35
2023-04-15T03:13:52.768Z,44.66
2023-04-15T03:16:33.266Z,45.24
2023-04-15T03:19:02.477Z,45.26
2023-04-15T03:21:32.264Z,44.47
2023-04-15T03:24:01.612Z,44.60
2023-04-15T03:26:32.304Z,44.42
2023-04-15T03:29:04.109Z,44.58
2023-04-15T03:31:35.467Z,44.76
2023-04-15T03:34:04.190Z,44.37
2023-04-15T03:36:35.505Z,44.01
2023-04-15T03:39:04.926Z,41.95
2023-04-15T03:41:33.772Z,42.58
2023-04-15T03:44:02.630Z,42.29
2023-04-15T03:46:31.484Z,41.23
2023-04-15T03:49:00.832Z,41.02
2023-04-15T03:51:29.927Z,40.81
2023-04-15T03:53:59.427Z,40.62
2023-04-15T03:56:28.207Z,40.39
2023-04-15T03:58:56.952Z,39.41
2023-04-15T04:01:25.779Z,38.98
2023-04-15T04:03:54.482Z,40.02
2023-04-15T04:06:23.462Z,39.71
2023-04-15T04:08:52.077Z,40.20
2023-04-15T04:11:21.740Z,39.07
2023-04-15T04:13:50.599Z,38.50
2023-04-15T04:16:19.255Z,37.71
2023-04-15T04:18:47.902Z,37.51
2023-04-15T04:21:17.028Z,37.40
2023-04-15T04:23:45.860Z,37.65
2023-04-15T04:26:14.592Z,37.11
2023-04-15T04:28:43.223Z,37.00
2023-04-15T04:31:12.064Z,37.14
2023-04-15T04:33:41.238Z,37.27
2023-04-15T04:36:09.662Z,37.09
2023-04-15T04:38:38.457Z,37.88
2023-04-15T04:41:07.088Z,37.63
2023-04-15T04:43:35.876Z,36.16
2023-04-15T04:46:04.486Z,36.43
2023-04-15T04:48:33.381Z,37.33
2023-04-15T04:51:02.246Z,37.13
2023-04-15T04:53:31.014Z,36.46
2023-04-15T04:55:59.559Z,36.43
2023-04-15T04:58:28.865Z,36.39
2023-04-15T05:00:58.268Z,35.82
2023-04-15T05:03:27.626Z,35.98
2023-04-15T05:05:56.708Z,36.54
2023-04-15T05:08:25.893Z,36.03
2023-04-15T05:10:55.015Z,35.11
2023-04-15T05:13:26.617Z,35.35
2023-04-15T05:15:55.415Z,35.16
2023-04-15T05:18:27.114Z,35.39
2023-04-15T05:20:55.788Z,34.90
2023-04-15T05:23:24.687Z,35.31
2023-04-15T05:25:53.331Z,35.42
2023-04-15T05:28:22.677Z,35.34
2023-04-15T05:30:52.317Z,35.16
2023-04-15T05:33:21.028Z,34.77
2023-04-15T05:35:50.549Z,35.15
2023-04-15T05:38:19.154Z,35.04
2023-04-15T05:40:48.363Z,34.71
2023-04-15T05:43:17.408Z,35.68
2023-04-15T05:45:46.759Z,35.06
2023-04-15T05:48:15.609Z,34.62
2023-04-15T05:50:44.449Z,34.05
2023-04-15T05:53:13.190Z,34.24
2023-04-15T05:55:41.997Z,33.94
2023-04-15T05:58:12.246Z,34.26
2023-04-15T06:00:41.912Z,34.03
2023-04-15T06:03:12.747Z,34.64
2023-04-15T06:05:41.410Z,33.99
2023-04-15T06:08:10.517Z,34.06
2023-04-15T06:10:39.449Z,34.98
2023-04-15T06:13:09.452Z,34.12
2023-04-15T06:15:38.540Z,34.13
2023-04-15T06:18:07.905Z,33.86
2023-04-15T06:20:37.305Z,34.17
2023-04-15T06:23:06.109Z,33.73
2023-04-15T06:25:35.349Z,33.52
2023-04-15T06:28:07.201Z,33.90
2023-04-15T06:30:37.503Z,33.58
2023-04-15T06:33:07.101Z,33.50
2023-04-15T06:35:36.268Z,34.04
2023-04-15T06:38:05.067Z,34.53
2023-04-15T06:40:34.470Z,34.09
2023-04-15T06:43:03.445Z,33.18
2023-04-15T06:45:34.518Z,33.69
2023-04-15T06:48:03.393Z,33.13
2023-04-15T06:50:32.285Z,33.08
2023-04-15T06:53:00.969Z,33.41
2023-04-15T06:55:29.686Z,32.93
2023-04-15T06:58:01.008Z,33.57
2023-04-15T07:00:30.061Z,34.04
2023-04-15T07:02:58.975Z,33.59
2023-04-15T07:05:28.602Z,33.11
2023-04-15T07:07:58.017Z,32.63
2023-04-15T07:10:26.936Z,32.51
2023-04-15T07:12:55.836Z,32.83
2023-04-15T07:15:24.649Z,32.78
2023-04-15T07:17:53.719Z,32.79
2023-04-15T07:20:22.814Z,33.03
2023-04-15T07:22:51.544Z,33.16
2023-04-15T07:25:20.558Z,32.67
2023-04-15T07:27:49.383Z,32.80
2023-04-15T07:30:18.277Z,32.93
2023-04-15T07:32:47.619Z,33.19
2023-04-15T07:35:16.491Z,33.09
2023-04-15T07:37:45.472Z,32.22
2023-04-15T07:40:15.432Z,32.34
2023-04-15T07:42:44.266Z,31.89
2023-04-15T07:45:16.658Z,32.38
2023-04-15T07:47:47.636Z,32.71
2023-04-15T07:50:17.071Z,32.90
2023-04-15T07:52:45.945Z,32.39
2023-04-15T07:55:14.688Z,32.05
2023-04-15T07:57:43.536Z,32.52
2023-04-15T08:00:13.000Z,32.43
2023-04-15T08:02:43.703Z,32.44
2023-04-15T08:05:12.425Z,33.16
2023-04-15T08:07:41.797Z,32.42
2023-04-15T08:10:11.056Z,31.95
2023-04-15T08:12:40.087Z,32.32
2023-04-15T08:15:09.831Z,32.26
2023-04-15T08:17:38.462Z,32.82
2023-04-15T08:20:07.603Z,32.76
2023-04-15T08:22:36.491Z,32.47
2023-04-15T08:25:05.426Z,32.49
2023-04-15T08:27:34.226Z,32.71
2023-04-15T08:30:05.108Z,32.85
2023-04-15T08:32:34.071Z,32.16
2023-04-15T08:35:02.935Z,32.07
2023-04-15T08:37:31.828Z,32.34
2023-04-15T08:40:00.604Z,31.58
2023-04-15T08:42:33.473Z,31.52
2023-04-15T08:45:05.148Z,32.22
2023-04-15T08:47:39.633Z,32.15
2023-04-15T08:50:14.426Z,31.37
2023-04-15T08:52:43.304Z,32.07
2023-04-15T08:55:14.570Z,31.34
2023-04-15T08:57:43.441Z,31.16
2023-04-15T09:00:13.332Z,31.01
2023-04-15T09:02:42.922Z,30.91
2023-04-15T09:05:11.953Z,31.35
2023-04-15T09:07:43.779Z,31.11
2023-04-15T09:10:12.903Z,30.67
2023-04-15T09:12:41.796Z,31.38
2023-04-15T09:15:13.896Z,31.44
2023-04-15T09:17:46.973Z,31.61
2023-04-15T09:20:21.913Z,31.86
2023-04-15T09:22:51.838Z,31.27
2023-04-15T09:25:32.176Z,31.50
2023-04-15T09:28:04.929Z,31.49
2023-04-15T09:30:33.708Z,30.93
2023-04-15T09:33:05.567Z,31.47
2023-04-15T09:35:34.817Z,31.55
2023-04-15T09:38:08.985Z,31.51
2023-04-15T09:40:40.278Z,31.44
2023-04-15T09:43:13.772Z,30.86
2023-04-15T09:45:50.256Z,30.90
2023-04-15T09:48:27.951Z,31.28
2023-04-15T09:51:01.050Z,31.12
2023-04-15T09:53:31.849Z,31.53
2023-04-15T09:56:04.114Z,31.03
2023-04-15T09:58:35.590Z,31.29
2023-04-15T10:01:06.924Z,31.64
2023-04-15T10:03:39.444Z,31.76
2023-04-15T10:06:09.024Z,31.71
2023-04-15T10:08:40.373Z,31.47
2023-04-15T10:11:09.426Z,31.65
2023-04-15T10:13:39.756Z,31.44
2023-04-15T10:16:11.654Z,32.00
2023-04-15T10:18:45.743Z,31.65
2023-04-15T10:21:19.281Z,31.22
2023-04-15T10:23:48.664Z,31.15
2023-04-15T10:26:18.517Z,30.83
2023-04-15T10:28:50.287Z,31.86
2023-04-15T10:31:20.865Z,31.72
2023-04-15T10:33:50.870Z,31.76
2023-04-15T10:36:21.473Z,31.36
2023-04-15T10:38:50.196Z,31.21
2023-04-15T10:41:24.721Z,31.57
2023-04-15T10:44:01.099Z,31.59
2023-04-15T10:46:41.596Z,31.58
2023-04-15T10:49:17.301Z,31.32
2023-04-15T10:51:51.999Z,31.49
2023-04-15T10:54:26.528Z,31.49
2023-04-15T10:57:07.342Z,31.24
2023-04-15T11:00:00.256Z,31.05
2023-04-15T11:02:54.007Z,31.19
2023-04-15T11:05:43.974Z,31.07
2023-04-15T11:08:13.997Z,30.87
2023-04-15T11:10:42.771Z,31.31
2023-04-15T11:13:11.829Z,30.78
2023-04-15T11:15:42.458Z,30.64
2023-04-15T11:18:42.256Z,30.32
2023-04-15T11:21:11.094Z,29.68
2023-04-15T11:23:44.849Z,29.48
2023-04-15T11:26:13.907Z,29.46
2023-04-15T11:28:46.599Z,29.69
2023-04-15T11:31:17.153Z,29.60
2023-04-15T11:34:00.897Z,30.51
2023-04-15T11:36:32.566Z,29.60
2023-04-15T11:39:01.805Z,30.45
2023-04-15T11:41:30.739Z,30.81
2023-04-15T11:43:59.570Z,30.19
2023-04-15T11:46:32.799Z,29.89
2023-04-15T11:49:01.682Z,29.66
2023-04-15T11:51:34.757Z,30.10
2023-04-15T11:54:04.533Z,30.69
2023-04-15T11:56:33.574Z,30.54
2023-04-15T11:59:02.812Z,30.41
2023-04-15T12:01:47.306Z,30.06
2023-04-15T12:04:25.492Z,31.00
2023-04-15T12:06:54.912Z,31.10
2023-04-15T12:09:23.628Z,30.66
2023-04-15T12:11:56.189Z,31.17
2023-04-15T12:14:32.295Z,31.44
2023-04-15T12:17:05.656Z,31.18
2023-04-15T12:19:39.358Z,30.79
2023-04-15T12:22:11.590Z,31.54
2023-04-15T12:24:41.170Z,30.92
2023-04-15T12:27:13.191Z,31.12
2023-04-15T12:29:44.061Z,31.54
2023-04-15T12:32:17.154Z,30.54
2023-04-15T12:34:51.681Z,30.50
2023-04-15T12:37:20.474Z,30.72
2023-04-15T12:39:51.305Z,31.04
2023-04-15T12:42:20.216Z,31.09
2023-04-15T12:44:48.896Z,31.58
2023-04-15T12:47:17.867Z,30.85
2023-04-15T12:49:46.601Z,31.06
2023-04-15T12:52:15.898Z,31.36
2023-04-15T12:54:47.275Z,31.06
2023-04-15T12:57:16.007Z,31.41
2023-04-15T12:59:44.962Z,31.23
2023-04-15T13:02:14.517Z,31.33
2023-04-15T13:04:43.599Z,31.65
2023-04-15T13:07:14.726Z,30.82
2023-04-15T13:09:43.762Z,31.25
2023-04-15T13:12:14.442Z,32.05
2023-04-15T13:14:43.464Z,30.90
2023-04-15T13:17:12.368Z,31.45
2023-04-15T13:19:41.323Z,31.06
2023-04-15T13:22:10.220Z,31.21
2023-04-15T13:24:40.161Z,31.47
2023-04-15T13:27:09.179Z,31.93
2023-04-15T13:29:38.574Z,31.55
2023-04-15T13:32:07.866Z,32.42
2023-04-15T13:34:36.819Z,31.81
2023-04-15T13:37:09.891Z,31.16
2023-04-15T13:39:38.845Z,31.83
2023-04-15T13:42:10.189Z,31.60
2023-04-15T13:44:39.381Z,32.22
2023-04-15T13:47:08.473Z,31.64
2023-04-15T13:49:37.139Z,32.10
2023-04-15T13:52:05.889Z,32.48
2023-04-15T13:54:37.044Z,32.64
2023-04-15T13:57:07.856Z,32.98
2023-04-15T13:59:37.101Z,32.97
2023-04-15T14:02:06.094Z,33.14
2023-04-15T14:04:34.927Z,33.78
2023-04-15T14:07:06.701Z,33.85
2023-04-15T14:09:36.503Z,33.66
2023-04-15T14:12:05.781Z,33.98
2023-04-15T14:14:34.396Z,33.93
2023-04-15T14:17:05.046Z,33.89
2023-04-15T14:19:37.004Z,33.80
2023-04-15T14:22:05.728Z,34.14
2023-04-15T14:24:34.638Z,34.58
2023-04-15T14:27:04.165Z,34.29
2023-04-15T14:29:33.106Z,34.58
2023-04-15T14:32:04.503Z,34.65
2023-04-15T14:34:41.721Z,35.29
2023-04-15T14:37:10.731Z,34.90
2023-04-15T14:39:39.693Z,34.97
2023-04-15T14:42:08.381Z,35.32
2023-04-15T14:44:37.191Z,35.58
2023-04-15T14:47:06.645Z,35.37
2023-04-15T14:49:35.285Z,35.58
2023-04-15T14:52:04.155Z,35.40
2023-04-15T14:54:33.035Z,35.93
2023-04-15T14:57:02.887Z,36.87
2023-04-15T14:59:31.873Z,37.52
2023-04-15T15:02:00.960Z,37.18
2023-04-15T15:04:30.758Z,36.88
2023-04-15T15:07:02.160Z,37.07
2023-04-15T15:09:30.869Z,37.35
2023-04-15T15:11:59.672Z,37.52
2023-04-15T15:14:28.597Z,37.99
2023-04-15T15:16:59.754Z,38.48
2023-04-15T15:19:28.453Z,38.51
2023-04-15T15:21:57.370Z,38.34
2023-04-15T15:24:26.228Z,38.42
2023-04-15T15:26:55.188Z,38.67
2023-04-15T15:29:24.551Z,38.75
2023-04-15T15:31:53.347Z,38.77
2023-04-15T15:34:22.118Z,38.79
2023-04-15T15:36:51.044Z,38.98
2023-04-15T15:39:19.913Z,38.83
2023-04-15T15:41:48.590Z,38.84
2023-04-15T15:44:17.632Z,39.60
2023-04-15T15:46:46.334Z,39.38
2023-04-15T15:49:15.267Z,39.02
2023-04-15T15:51:44.473Z,39.23
2023-04-15T15:54:13.282Z,39.27
2023-04-15T15:56:42.843Z,39.84
2023-04-15T15:59:11.914Z,39.71
2023-04-15T16:01:40.938Z,39.60
2023-04-15T16:04:09.864Z,39.73
2023-04-15T16:06:38.946Z,39.83
2023-04-15T16:09:07.755Z,39.99
2023-04-15T16:11:36.803Z,40.01
2023-04-15T16:14:05.951Z,39.63
2023-04-15T16:16:35.879Z,39.47
2023-04-15T16:19:05.128Z,39.95
2023-04-15T16:21:35.160Z,39.93
2023-04-15T16:24:04.364Z,40.02
2023-04-15T16:26:33.419Z,40.91
2023-04-15T16:29:02.851Z,41.15
2023-04-15T16:31:32.004Z,41.34
2023-04-15T16:34:00.784Z,41.17
2023-04-15T16:36:30.147Z,41.24
2023-04-15T16:38:59.147Z,41.45
2023-04-15T16:41:28.752Z,40.97
2023-04-15T16:43:59.561Z,41.43
2023-04-15T16:46:30.474Z,41.04
2023-04-15T16:48:59.282Z,41.96
2023-04-15T16:51:31.256Z,41.93
2023-04-15T16:54:00.139Z,42.13
2023-04-15T16:56:29.984Z,41.46
2023-04-15T16:58:59.138Z,41.86
2023-04-15T17:01:27.982Z,41.94
2023-04-15T17:03:57.372Z,42.50
2023-04-15T17:06:27.479Z,43.57
2023-04-15T17:08:56.327Z,43.61
2023-04-15T17:11:25.241Z,43.55
2023-04-15T17:13:54.331Z,44.02
2023-04-15T17:16:23.515Z,44.21
2023-04-15T17:18:52.688Z,44.35
2023-04-15T17:21:22.379Z,45.38
2023-04-15T17:23:52.187Z,45.89
2023-04-15T17:26:21.462Z,46.89
2023-04-15T17:28:50.642Z,46.27
2023-04-15T17:31:19.380Z,45.87
2023-04-15T17:34:03.588Z,45.99
2023-04-15T17:36:37.320Z,46.78
2023-04-15T17:39:06.774Z,47.01
2023-04-15T17:41:35.872Z,46.61
2023-04-15T17:44:04.953Z,45.65
2023-04-15T17:46:34.217Z,46.13
2023-04-15T17:49:04.258Z,46.57
2023-04-15T17:51:33.799Z,45.80
2023-04-15T17:54:09.160Z,47.72
2023-04-15T17:56:38.339Z,47.83
2023-04-15T17:59:10.666Z,47.15
2023-04-15T18:01:39.342Z,47.49
2023-04-15T18:04:08.944Z,48.22
2023-04-15T18:06:38.482Z,48.91
2023-04-15T18:09:08.011Z,49.01
2023-04-15T18:11:37.150Z,48.70
2023-04-15T18:14:07.725Z,49.16
2023-04-15T18:16:36.809Z,48.49
2023-04-15T18:19:05.374Z,49.80
2023-04-15T18:21:34.087Z,48.77
2023-04-15T18:24:03.633Z,49.20
2023-04-15T18:26:32.791Z,49.64
2023-04-15T18:29:01.774Z,50.17
2023-04-15T18:31:30.570Z,50.17
2023-04-15T18:33:59.492Z,50.33
2023-04-15T18:36:28.532Z,50.15
2023-04-15T18:38:57.313Z,50.94
2023-04-15T18:41:26.664Z,49.96
2023-04-15T18:43:56.967Z,50.55
2023-04-15T18:46:26.063Z,50.60
2023-04-15T18:48:54.828Z,50.24
2023-04-15T18:51:23.849Z,49.93
2023-04-15T18:53:52.624Z,51.13
2023-04-15T18:56:21.275Z,51.35
2023-04-15T18:59:09.302Z,50.96
2023-04-15T19:01:38.643Z,50.67
2023-04-15T19:04:07.470Z,51.30
2023-04-15T19:06:36.312Z,52.06
2023-04-15T19:09:05.418Z,51.80
2023-04-15T19:11:34.576Z,52.40
2023-04-15T19:14:03.391Z,51.96
2023-04-15T19:16:32.187Z,52.73
2023-04-15T19:19:00.913Z,51.64
2023-04-15T19:21:31.352Z,52.00
2023-04-15T19:24:01.322Z,52.95
2023-04-15T19:26:30.251Z,51.58
2023-04-15T19:28:59.750Z,52.55
2023-04-15T19:31:28.524Z,51.53
2023-04-15T19:33:57.575Z,51.72
2023-04-15T19:36:28.939Z,52.14
2023-04-15T19:38:57.756Z,53.20
2023-04-15T19:41:27.165Z,52.34
2023-04-15T19:43:56.343Z,52.83
2023-04-15T19:46:25.622Z,53.03
2023-04-15T19:48:55.411Z,53.89
2023-04-15T19:51:24.136Z,53.81
2023-04-15T19:53:54.713Z,53.65
2023-04-15T19:56:24.699Z,52.78
2023-04-15T19:58:56.895Z,53.99
2023-04-15T20:01:25.817Z,53.13
2023-04-15T20:03:55.646Z,54.00
2023-04-15T20:06:24.799Z,53.73
2023-04-15T20:08:53.406Z,54.24
2023-04-15T20:11:22.973Z,55.09
2023-04-15T20:13:51.718Z,54.42
2023-04-15T20:16:20.614Z,54.40
2023-04-15T20:18:49.514Z,55.17
2023-04-15T20:21:18.392Z,53.97
2023-04-15T20:23:47.233Z,54.44
2023-04-15T20:26:15.969Z,54.08
2023-04-15T20:28:44.620Z,54.33
2023-04-15T20:31:13.572Z,53.38
2023-04-15T20:33:42.452Z,53.49
2023-04-15T20:36:11.269Z,53.24
2023-04-15T20:38:40.189Z,53.38
2023-04-15T20:41:09.038Z,53.92
2023-04-15T20:43:37.951Z,53.13
2023-04-15T20:46:13.921Z,52.10
2023-04-15T20:48:49.652Z,52.70
2023-04-15T20:51:18.453Z,52.42
2023-04-15T20:53:47.359Z,52.41
2023-04-15T20:56:16.210Z,52.39
2023-04-15T20:58:44.970Z,52.51
2023-04-15T21:01:14.451Z,52.44
2023-04-15T21:03:43.315Z,52.55
2023-04-15T21:06:12.303Z,52.17
2023-04-15T21:08:41.074Z,53.69
2023-04-15T21:11:10.073Z,52.96
2023-04-15T21:13:38.935Z,52.76
2023-04-15T21:16:07.759Z,53.79
2023-04-15T21:18:36.654Z,54.04
2023-04-15T21:21:06.291Z,53.64
2023-04-15T21:23:36.800Z,54.59
2023-04-15T21:26:05.433Z,54.47
2023-04-15T21:28:34.275Z,55.02
2023-04-15T21:31:02.852Z,54.76
2023-04-15T21:33:31.574Z,55.73
2023-04-15T21:36:00.393Z,55.45
2023-04-15T21:38:28.995Z,55.80
2023-04-15T21:40:58.374Z,55.38
2023-04-15T21:43:27.417Z,56.73
2023-04-15T21:46:22.952Z,55.70
2023-04-15T21:48:45.335Z,56.85
2023-04-15T21:51:14.300Z,56.53
2023-04-15T21:53:43.077Z,56.13
2023-04-15T21:56:11.925Z,56.99
2023-04-15T21:58:40.815Z,57.32
2023-04-15T22:01:09.645Z,56.64
2023-04-15T22:03:38.580Z,56.78
2023-04-15T22:06:08.094Z,57.34
2023-04-15T22:08:48.329Z,56.90
2023-04-15T22:11:30.396Z,57.75
2023-04-15T22:14:00.412Z,57.71
2023-04-15T22:16:29.554Z,57.43
2023-04-15T22:18:58.399Z,58.18
2023-04-15T22:21:27.637Z,57.50
2023-04-15T22:24:36.706Z,58.10
2023-04-15T22:26:45.375Z,57.50
2023-04-15T22:29:14.271Z,57.54
2023-04-15T22:31:43.170Z,57.80
2023-04-15T22:34:11.913Z,57.77
2023-04-15T22:36:40.629Z,58.58
2023-04-15T22:39:09.410Z,58.01
2023-04-15T22:41:40.709Z,58.75
2023-04-15T22:44:09.510Z,59.15
2023-04-15T22:46:39.247Z,59.05
2023-04-15T22:49:11.222Z,59.41
2023-04-15T22:51:40.129Z,59.66
2023-04-15T22:54:08.787Z,59.34
2023-04-15T22:56:37.588Z,59.90
2023-04-15T22:59:06.448Z,59.38
2023-04-15T23:01:35.283Z,59.11
2023-04-15T23:04:05.853Z,59.18
2023-04-15T23:06:38.709Z,59.43
2023-04-15T23:09:07.783Z,59.42
2023-04-15T23:11:36.713Z,59.80
2023-04-15T23:14:05.469Z,59.97
2023-04-15T23:16:34.221Z,59.06
2023-04-15T23:19:03.091Z,58.83
2023-04-15T23:21:31.994Z,59.58
2023-04-15T23:24:00.673Z,59.50
2023-04-15T23:26:29.497Z,59.26
2023-04-15T23:28:58.632Z,59.24
2023-04-15T23:31:27.297Z,59.46
2023-04-15T23:33:56.008Z,59.30
2023-04-15T23:36:24.795Z,59.47
2023-04-15T23:38:53.697Z,59.23
2023-04-15T23:41:22.647Z,58.88
2023-04-15T23:43:51.350Z,59.35
2023-04-15T23:46:20.316Z,59.11
2023-04-15T23:48:49.756Z,58.84
2023-04-15T23:51:18.550Z,59.14
2023-04-15T23:53:47.626Z,58.73
2023-04-15T23:56:16.914Z,59.29
2023-04-15T23:58:46.511Z,59.13
